createdAt,value
2018-07-22T00:01:24.363Z,16.48
2018-07-22T00:04:26.626Z,16.46
2018-07-22T00:07:28.891Z,16.51
2018-07-22T00:10:31.133Z,16.64
2018-07-22T00:13:34.534Z,16.72
2018-07-22T00:16:37.082Z,16.76
2018-07-22T00:19:39.410Z,16.78
2018-07-22T00:22:41.656Z,16.82
2018-07-22T00:25:43.909Z,16.78
2018-07-22T00:28:46.221Z,16.73
2018-07-22T00:31:48.493Z,16.69
2018-07-22T00:34:50.718Z,16.68
2018-07-22T00:37:53.014Z,16.64
2018-07-22T00:40:55.278Z,16.78
2018-07-22T00:43:57.548Z,16.79
2018-07-22T00:46:59.838Z,16.79
2018-07-22T00:50:02.205Z,16.45
2018-07-22T00:53:06.438Z,16.31
2018-07-22T00:56:08.676Z,16.24
2018-07-22T00:59:10.979Z,16.07
2018-07-22T01:02:13.274Z,16.08
2018-07-22T01:05:15.493Z,16.05
2018-07-22T01:08:17.771Z,16.02
2018-07-22T01:11:20.079Z,16.02
2018-07-22T01:14:23.328Z,16.03
2018-07-22T01:17:26.546Z,16.02
2018-07-22T01:20:29.845Z,16.06
2018-07-22T01:23:32.120Z,16.04
2018-07-22T01:26:34.355Z,16.05
2018-07-22T01:29:37.589Z,16.03
2018-07-22T01:32:39.990Z,16.03
2018-07-22T01:35:42.208Z,16.03
2018-07-22T01:38:45.453Z,16.02
2018-07-22T01:41:47.743Z,15.91
2018-07-22T01:44:49.992Z,15.86
2018-07-22T01:47:52.242Z,15.81
2018-07-22T01:50:54.470Z,15.91
2018-07-22T01:53:56.706Z,16.03
2018-07-22T01:56:58.967Z,16.22
2018-07-22T02:00:01.258Z,16.42
2018-07-22T02:03:03.647Z,16.59
2018-07-22T02:06:05.979Z,16.74
2018-07-22T02:09:09.501Z,16.85
2018-07-22T02:12:12.789Z,16.90
2018-07-22T02:15:15.003Z,16.92
2018-07-22T02:18:17.354Z,16.97
2018-07-22T02:21:19.675Z,17.02
2018-07-22T02:24:21.993Z,17.07
2018-07-22T02:27:24.269Z,17.15
2018-07-22T02:30:26.485Z,17.21
2018-07-22T02:33:29.744Z,17.27
2018-07-22T02:36:32.011Z,17.34
2018-07-22T02:39:34.294Z,17.39
2018-07-22T02:42:36.580Z,17.46
2018-07-22T02:45:38.932Z,17.55
2018-07-22T02:48:41.183Z,17.62
2018-07-22T02:51:43.453Z,17.72
2018-07-22T02:54:45.714Z,17.78
2018-07-22T02:57:47.968Z,17.86
2018-07-22T03:00:50.237Z,17.94
2018-07-22T03:03:52.500Z,18.02
2018-07-22T03:06:55.745Z,18.07
2018-07-22T03:09:58.038Z,18.06
2018-07-22T03:13:00.261Z,18.00
2018-07-22T03:16:02.552Z,17.97
2018-07-22T03:19:04.818Z,17.89
2018-07-22T03:22:07.246Z,17.88
2018-07-22T03:25:09.598Z,17.61
2018-07-22T03:28:12.165Z,17.54
2018-07-22T03:31:14.642Z,17.46
2018-07-22T03:34:16.860Z,17.42
2018-07-22T03:37:19.293Z,17.41
2018-07-22T03:40:21.546Z,17.41
2018-07-22T03:43:23.784Z,17.44
2018-07-22T03:46:26.100Z,17.44
2018-07-22T03:49:28.377Z,17.48
2018-07-22T03:52:30.649Z,17.50
2018-07-22T03:55:32.894Z,17.59
2018-07-22T03:58:35.164Z,17.61
2018-07-22T04:01:37.585Z,17.71
2018-07-22T04:04:39.831Z,17.71
2018-07-22T04:07:42.062Z,17.77
2018-07-22T04:10:44.329Z,17.78
2018-07-22T04:13:46.653Z,17.86
2018-07-22T04:16:48.881Z,18.03
2018-07-22T04:19:51.146Z,18.11
2018-07-22T04:22:53.429Z,18.20
2018-07-22T04:25:55.755Z,18.35
2018-07-22T04:28:57.995Z,18.45
2018-07-22T04:32:00.305Z,18.56
2018-07-22T04:35:02.678Z,18.66
2018-07-22T04:38:05.295Z,18.74
2018-07-22T04:41:07.509Z,18.85
2018-07-22T04:44:09.767Z,18.88
2018-07-22T04:47:11.984Z,19.03
2018-07-22T04:50:14.249Z,19.14
2018-07-22T04:53:16.502Z,19.41
2018-07-22T04:56:18.802Z,19.73
2018-07-22T04:59:21.210Z,20.16
2018-07-22T05:02:23.687Z,20.84
2018-07-22T05:05:25.998Z,20.94
2018-07-22T05:08:28.344Z,21.51
2018-07-22T05:11:30.558Z,21.59
2018-07-22T05:14:32.801Z,21.37
2018-07-22T05:17:35.014Z,21.65
2018-07-22T05:20:37.247Z,21.48
2018-07-22T05:23:39.498Z,21.79
2018-07-22T05:26:41.733Z,22.09
2018-07-22T05:29:44.029Z,22.09
2018-07-22T05:32:46.312Z,22.19
2018-07-22T05:35:48.618Z,22.48
2018-07-22T05:38:50.853Z,22.42
2018-07-22T05:41:53.121Z,22.39
2018-07-22T05:44:55.326Z,22.16
2018-07-22T05:47:57.501Z,21.53
2018-07-22T05:50:59.821Z,21.56
2018-07-22T05:54:02.106Z,22.16
2018-07-22T05:57:05.181Z,21.10
2018-07-22T06:00:07.921Z,21.14
2018-07-22T06:03:10.137Z,21.77
2018-07-22T06:06:13.368Z,22.81
2018-07-22T06:09:15.609Z,22.97
2018-07-22T06:12:17.874Z,23.02
2018-07-22T06:15:20.426Z,23.55
2018-07-22T06:18:22.663Z,23.32
2018-07-22T06:21:25.026Z,23.60
2018-07-22T06:24:27.241Z,24.82
2018-07-22T06:27:29.500Z,24.29
2018-07-22T06:30:31.808Z,25.32
2018-07-22T06:33:34.158Z,24.99
2018-07-22T06:36:36.403Z,26.54
2018-07-22T06:39:38.701Z,26.73
2018-07-22T06:42:40.990Z,25.50
2018-07-22T06:45:43.362Z,25.29
2018-07-22T06:48:45.665Z,26.78
2018-07-22T06:51:48.090Z,26.12
2018-07-22T06:54:50.325Z,26.62
2018-07-22T06:57:52.678Z,25.45
2018-07-22T07:00:55.162Z,25.98
2018-07-22T07:03:57.518Z,27.24
2018-07-22T07:06:59.842Z,25.27
2018-07-22T07:10:02.224Z,26.01
2018-07-22T07:13:04.444Z,25.35
2018-07-22T07:16:06.674Z,25.63
2018-07-22T07:19:08.931Z,25.49
2018-07-22T07:22:11.202Z,24.40
2018-07-22T07:25:13.578Z,24.81
2018-07-22T07:28:15.835Z,25.67
2018-07-22T07:31:18.629Z,25.67
2018-07-22T07:34:20.888Z,25.40
2018-07-22T07:37:23.182Z,24.41
2018-07-22T07:40:25.475Z,25.11
2018-07-22T07:43:27.733Z,24.92
2018-07-22T07:46:29.963Z,24.84
2018-07-22T07:49:32.372Z,26.02
2018-07-22T07:52:34.669Z,26.57
2018-07-22T07:55:36.946Z,28.27
2018-07-22T07:58:39.337Z,27.90
2018-07-22T08:01:42.666Z,28.08
2018-07-22T08:04:44.915Z,27.61
2018-07-22T08:07:47.217Z,26.47
2018-07-22T08:10:49.537Z,27.29
2018-07-22T08:13:51.791Z,27.01
2018-07-22T08:16:54.028Z,27.62
2018-07-22T08:19:56.322Z,28.21
2018-07-22T08:22:58.561Z,27.61
2018-07-22T08:26:00.896Z,26.70
2018-07-22T08:29:25.735Z,25.48
2018-07-22T08:32:28.010Z,24.71
2018-07-22T08:35:30.261Z,24.78
2018-07-22T08:38:32.447Z,24.50
2018-07-22T08:41:34.751Z,24.65
2018-07-22T08:44:36.957Z,24.29
2018-07-22T08:47:39.167Z,25.19
2018-07-22T08:50:41.361Z,24.93
2018-07-22T08:53:44.834Z,25.10
2018-07-22T08:56:47.185Z,25.88
2018-07-22T08:59:49.454Z,26.27
2018-07-22T09:02:51.763Z,27.81
2018-07-22T09:05:54.033Z,28.54
2018-07-22T09:08:56.334Z,27.61
2018-07-22T09:11:58.577Z,28.24
2018-07-22T09:15:00.781Z,28.85
2018-07-22T09:18:04.059Z,29.31
2018-07-22T09:21:08.513Z,27.90
2018-07-22T09:24:10.731Z,26.88
2018-07-22T09:27:13.051Z,26.84
2018-07-22T09:30:15.237Z,26.52
2018-07-22T09:33:17.470Z,26.49
2018-07-22T09:36:19.847Z,27.47
2018-07-22T09:39:22.058Z,27.78
2018-07-22T09:42:25.074Z,27.45
2018-07-22T09:45:27.269Z,28.30
2018-07-22T09:48:33.853Z,28.80
2018-07-22T09:51:37.216Z,29.24
2018-07-22T09:54:40.514Z,29.19
2018-07-22T09:57:42.818Z,30.19
2018-07-22T10:00:50.622Z,30.05
2018-07-22T10:03:53.877Z,30.19
2018-07-22T10:06:56.073Z,29.08
2018-07-22T10:09:58.310Z,28.41
2018-07-22T10:13:00.633Z,28.48
2018-07-22T10:16:02.994Z,28.52
2018-07-22T10:19:06.357Z,27.20
2018-07-22T10:22:08.782Z,26.71
2018-07-22T10:25:11.086Z,27.09
2018-07-22T10:28:14.401Z,27.75
2018-07-22T10:31:16.654Z,28.53
2018-07-22T10:34:24.248Z,30.27
2018-07-22T10:37:26.801Z,29.29
2018-07-22T10:40:32.131Z,29.33
2018-07-22T10:43:35.465Z,29.90
2018-07-22T10:46:37.842Z,28.82
2018-07-22T10:49:40.114Z,27.74
2018-07-22T10:52:42.466Z,27.24
2018-07-22T10:55:46.778Z,27.15
2018-07-22T10:58:49.082Z,27.88
2018-07-22T11:01:51.451Z,27.73
2018-07-22T11:04:54.718Z,27.95
2018-07-22T11:07:57.023Z,28.24
2018-07-22T11:10:59.234Z,27.32
2018-07-22T11:14:03.686Z,27.47
2018-07-22T11:17:06.062Z,28.03
2018-07-22T11:20:08.364Z,28.72
2018-07-22T11:23:10.578Z,28.92
2018-07-22T11:26:13.851Z,28.08
2018-07-22T11:29:16.258Z,28.84
2018-07-22T11:32:19.611Z,27.79
2018-07-22T11:35:22.961Z,27.81
2018-07-22T11:38:26.303Z,27.35
2018-07-22T11:41:29.615Z,27.39
2018-07-22T11:44:32.846Z,27.26
2018-07-22T11:47:35.287Z,27.14
2018-07-22T11:50:43.279Z,27.14
2018-07-22T11:53:45.452Z,27.37
2018-07-22T11:56:52.746Z,28.17
2018-07-22T11:59:56.076Z,28.64
2018-07-22T12:02:59.286Z,27.76
2018-07-22T12:06:02.518Z,28.23
2018-07-22T12:09:07.105Z,28.69
2018-07-22T12:12:15.026Z,29.39
2018-07-22T12:15:17.276Z,29.07
2018-07-22T12:18:20.631Z,29.52
2018-07-22T12:21:24.946Z,29.39
2018-07-22T12:24:27.183Z,28.47
2018-07-22T12:27:29.441Z,29.09
2018-07-22T12:30:31.994Z,29.27
2018-07-22T12:33:35.324Z,29.17
2018-07-22T12:36:37.852Z,28.65
2018-07-22T12:39:40.241Z,29.04
2018-07-22T12:42:42.474Z,28.99
2018-07-22T12:45:44.726Z,29.86
2018-07-22T12:48:47.114Z,29.49
2018-07-22T12:51:50.309Z,29.44
2018-07-22T12:54:52.584Z,29.63
2018-07-22T12:58:00.616Z,28.76
2018-07-22T13:01:03.840Z,28.73
2018-07-22T13:04:08.199Z,28.81
2018-07-22T13:07:11.551Z,29.14
2018-07-22T13:10:13.744Z,29.17
2018-07-22T13:13:15.982Z,29.97
2018-07-22T13:16:18.242Z,30.59
2018-07-22T13:19:20.502Z,29.55
2018-07-22T13:22:22.817Z,30.40
2018-07-22T13:25:28.701Z,30.47
2018-07-22T13:28:31.125Z,29.89
2018-07-22T13:31:34.346Z,29.16
2018-07-22T13:34:37.653Z,28.72
2018-07-22T13:37:40.911Z,28.07
2018-07-22T13:40:43.131Z,27.98
2018-07-22T13:43:45.390Z,27.87
2018-07-22T13:46:47.607Z,28.08
2018-07-22T13:49:50.007Z,28.59
2018-07-22T13:52:52.304Z,28.64
2018-07-22T13:55:54.575Z,28.45
2018-07-22T13:58:56.805Z,28.38
2018-07-22T14:01:59.028Z,28.56
2018-07-22T14:05:01.402Z,28.45
2018-07-22T14:08:13.361Z,28.51
2018-07-22T14:11:15.615Z,27.56
2018-07-22T14:14:19.830Z,26.74
2018-07-22T14:17:27.067Z,26.83
2018-07-22T14:20:33.009Z,26.66
2018-07-22T14:23:35.228Z,26.38
2018-07-22T14:26:37.593Z,26.11
2018-07-22T14:29:39.891Z,26.38
2018-07-22T14:32:42.100Z,26.45
2018-07-22T14:35:44.403Z,26.93
2018-07-22T14:38:50.650Z,27.23
2018-07-22T14:41:52.933Z,27.69
2018-07-22T14:44:55.196Z,27.77
2018-07-22T14:47:57.513Z,27.54
2018-07-22T14:51:00.762Z,27.68
2018-07-22T14:54:03.062Z,27.75
2018-07-22T14:57:07.366Z,27.78
2018-07-22T15:00:10.017Z,27.64
2018-07-22T15:03:12.346Z,28.04
2018-07-22T15:06:14.572Z,28.33
2018-07-22T15:09:16.877Z,28.70
2018-07-22T15:12:21.205Z,28.81
2018-07-22T15:15:23.446Z,29.44
2018-07-22T15:18:25.712Z,29.33
2018-07-22T15:21:27.941Z,29.01
2018-07-22T15:24:30.173Z,28.76
2018-07-22T15:27:32.413Z,28.91
2018-07-22T15:30:35.781Z,29.49
2018-07-22T15:33:38.053Z,29.76
2018-07-22T15:36:41.301Z,29.40
2018-07-22T15:39:43.622Z,28.92
2018-07-22T15:42:45.946Z,29.46
2018-07-22T15:45:48.210Z,30.77
2018-07-22T15:48:50.446Z,31.83
2018-07-22T15:51:53.663Z,32.64
2018-07-22T15:54:55.943Z,31.10
2018-07-22T15:57:58.230Z,31.95
2018-07-22T16:01:00.489Z,31.99
2018-07-22T16:04:02.757Z,31.98
2018-07-22T16:07:05.310Z,31.49
2018-07-22T16:10:07.820Z,31.89
2018-07-22T16:13:10.028Z,32.30
2018-07-22T16:16:12.275Z,32.31
2018-07-22T16:19:15.581Z,31.04
2018-07-22T16:22:18.813Z,30.62
2018-07-22T16:25:21.141Z,30.63
2018-07-22T16:28:23.396Z,30.41
2018-07-22T16:31:25.753Z,29.81
2018-07-22T16:34:29.093Z,29.91
2018-07-22T16:37:31.519Z,30.11
2018-07-22T16:40:33.764Z,30.55
2018-07-22T16:43:36.223Z,31.10
2018-07-22T16:46:38.512Z,31.14
2018-07-22T16:49:40.840Z,30.88
2018-07-22T16:52:44.161Z,29.93
2018-07-22T16:55:49.741Z,29.58
2018-07-22T16:58:53.005Z,29.74
2018-07-22T17:01:55.256Z,29.83
2018-07-22T17:05:01.062Z,29.99
2018-07-22T17:08:03.425Z,31.19
2018-07-22T17:11:07.780Z,31.87
2018-07-22T17:14:10.084Z,32.09
2018-07-22T17:17:12.433Z,31.88
2018-07-22T17:20:15.810Z,31.19
2018-07-22T17:23:18.168Z,31.26
2018-07-22T17:26:22.510Z,31.48
2018-07-22T17:29:26.355Z,31.25
2018-07-22T17:32:32.410Z,30.83
2018-07-22T17:35:35.867Z,30.79
2018-07-22T17:38:38.200Z,30.18
2018-07-22T17:41:41.439Z,29.21
2018-07-22T17:44:43.870Z,29.09
2018-07-22T17:47:46.190Z,29.75
2018-07-22T17:50:48.431Z,29.83
2018-07-22T17:53:51.759Z,29.81
2018-07-22T17:56:55.031Z,29.98
2018-07-22T18:00:00.770Z,30.09
2018-07-22T18:03:25.556Z,29.00
2018-07-22T18:06:27.789Z,28.34
2018-07-22T18:09:31.057Z,28.22
2018-07-22T18:12:33.325Z,28.19
2018-07-22T18:15:35.557Z,28.43
2018-07-22T18:18:37.865Z,28.39
2018-07-22T18:21:41.137Z,28.41
2018-07-22T18:24:43.469Z,28.46
2018-07-22T18:27:46.764Z,28.22
2018-07-22T18:30:49.092Z,27.84
2018-07-22T18:33:52.371Z,27.67
2018-07-22T18:36:54.624Z,27.42
2018-07-22T18:39:56.943Z,27.10
2018-07-22T18:42:59.180Z,26.79
2018-07-22T18:46:03.630Z,26.50
2018-07-22T18:49:05.929Z,26.26
2018-07-22T18:52:09.132Z,26.02
2018-07-22T18:55:11.513Z,25.76
2018-07-22T18:58:13.857Z,25.46
2018-07-22T19:01:17.385Z,24.93
2018-07-22T19:04:19.686Z,24.44
2018-07-22T19:07:22.007Z,24.08
2018-07-22T19:10:24.258Z,23.73
2018-07-22T19:13:26.446Z,23.43
2018-07-22T19:16:29.643Z,23.13
2018-07-22T19:19:31.976Z,22.76
2018-07-22T19:22:34.224Z,22.46
2018-07-22T19:25:37.451Z,22.13
2018-07-22T19:28:39.745Z,21.85
2018-07-22T19:31:43.040Z,21.52
2018-07-22T19:34:48.748Z,21.27
2018-07-22T19:37:52.045Z,21.03
2018-07-22T19:40:55.453Z,20.79
2018-07-22T19:43:57.685Z,20.50
2018-07-22T19:46:59.992Z,20.33
2018-07-22T19:50:04.436Z,20.18
2018-07-22T19:53:06.682Z,20.06
2018-07-22T19:56:08.952Z,19.92
2018-07-22T19:59:12.346Z,19.78
2018-07-22T20:02:14.631Z,19.65
2018-07-22T20:05:20.705Z,19.66
2018-07-22T20:08:22.881Z,19.66
2018-07-22T20:11:25.142Z,19.67
2018-07-22T20:14:27.348Z,19.60
2018-07-22T20:17:29.722Z,19.52
2018-07-22T20:20:32.254Z,19.25
2018-07-22T20:23:36.661Z,19.06
2018-07-22T20:26:40.199Z,18.91
2018-07-22T20:29:42.812Z,18.81
2018-07-22T20:32:45.189Z,18.74
2018-07-22T20:35:47.642Z,18.72
2018-07-22T20:38:50.248Z,18.62
2018-07-22T20:41:52.582Z,18.47
2018-07-22T20:44:55.203Z,18.26
2018-07-22T20:47:58.706Z,18.01
2018-07-22T20:51:01.280Z,17.93
2018-07-22T20:54:03.753Z,18.02
2018-07-22T20:57:06.320Z,18.12
2018-07-22T21:00:08.820Z,18.17
2018-07-22T21:03:11.254Z,18.12
2018-07-22T21:06:14.728Z,18.07
2018-07-22T21:09:17.349Z,18.05
2018-07-22T21:12:40.519Z,18.01
2018-07-22T21:15:42.950Z,17.94
2018-07-22T21:18:45.390Z,17.82
2018-07-22T21:21:47.866Z,17.63
2018-07-22T21:24:50.160Z,17.44
2018-07-22T21:27:53.514Z,17.31
2018-07-22T21:30:55.962Z,17.32
2018-07-22T21:34:00.554Z,17.42
2018-07-22T21:37:02.927Z,17.47
2018-07-22T21:40:09.147Z,17.46
2018-07-22T21:43:11.666Z,17.40
2018-07-22T21:46:15.054Z,17.45
2018-07-22T21:49:17.617Z,17.46
2018-07-22T21:52:24.172Z,17.47
2018-07-22T21:55:28.592Z,17.43
2018-07-22T21:58:32.139Z,17.37
2018-07-22T22:01:35.617Z,17.32
2018-07-22T22:04:41.074Z,17.26
2018-07-22T22:07:43.439Z,17.21
2018-07-22T22:10:45.769Z,17.18
2018-07-22T22:13:48.177Z,17.17
2018-07-22T22:16:50.611Z,17.15
2018-07-22T22:19:54.040Z,17.18
2018-07-22T22:22:56.859Z,17.23
2018-07-22T22:26:00.515Z,17.17
2018-07-22T22:29:03.159Z,17.14
2018-07-22T22:32:06.649Z,17.10
2018-07-22T22:35:09.295Z,17.06
2018-07-22T22:38:13.828Z,16.81
2018-07-22T22:41:18.346Z,16.66
2018-07-22T22:44:20.811Z,16.57
2018-07-22T22:47:23.256Z,16.42
2018-07-22T22:50:25.727Z,16.25
2018-07-22T22:53:28.228Z,16.12
2018-07-22T22:56:34.873Z,16.04
2018-07-22T22:59:37.355Z,16.08
2018-07-22T23:02:42.969Z,16.11
2018-07-22T23:05:45.862Z,16.16
2018-07-22T23:08:48.280Z,16.21
2018-07-22T23:11:51.770Z,16.31
2018-07-22T23:14:55.300Z,16.39
2018-07-22T23:17:58.796Z,16.44
2018-07-22T23:21:01.378Z,16.48
2018-07-22T23:24:05.056Z,16.56
2018-07-22T23:27:08.638Z,16.64
2018-07-22T23:30:11.331Z,16.73
2018-07-22T23:33:14.981Z,16.81
2018-07-22T23:36:18.576Z,16.84
2018-07-22T23:39:24.320Z,16.79
2018-07-22T23:42:28.775Z,16.72
2018-07-22T23:45:31.208Z,16.68
2018-07-22T23:48:33.767Z,16.60
2018-07-22T23:51:37.368Z,16.52
2018-07-22T23:54:40.055Z,16.43
2018-07-22T23:57:42.538Z,16.21
